sensor_id;sensor_type;location;lat;lon;timestamp;temperature;humidity
5556;DHT22;2801;50.972;7.856;2022-12-07T00:01:35;3.20;99.90
5556;DHT22;2801;50.972;7.856;2022-12-07T00:04:08;3.20;99.90
5556;DHT22;2801;50.972;7.856;2022-12-07T00:06:46;3.20;99.90
5556;DHT22;2801;50.972;7.856;2022-12-07T00:09:17;3.20;99.90
5556;DHT22;2801;50.972;7.856;2022-12-07T00:11:47;3.20;99.90
5556;DHT22;2801;50.972;7.856;2022-12-07T00:14:16;3.20;99.90
5556;DHT22;2801;50.972;7.856;2022-12-07T00:16:44;3.20;99.90
5556;DHT22;2801;50.972;7.856;2022-12-07T00:19:13;3.20;99.90
5556;DHT22;2801;50.972;7.856;2022-12-07T00:21:40;3.20;99.90
5556;DHT22;2801;50.972;7.856;2022-12-07T00:24:09;3.20;99.90
5556;DHT22;2801;50.972;7.856;2022-12-07T00:26:38;3.20;99.90
5556;DHT22;2801;50.972;7.856;2022-12-07T00:29:20;3.30;99.90
5556;DHT22;2801;50.972;7.856;2022-12-07T00:31:48;3.30;99.90
5556;DHT22;2801;50.972;7.856;2022-12-07T00:34:17;3.20;99.90
5556;DHT22;2801;50.972;7.856;2022-12-07T00:36:46;3.30;99.90
5556;DHT22;2801;50.972;7.856;2022-12-07T00:39:13;3.30;99.90
5556;DHT22;2801;50.972;7.856;2022-12-07T00:41:40;3.20;99.90
5556;DHT22;2801;50.972;7.856;2022-12-07T00:44:07;3.30;99.90
5556;DHT22;2801;50.972;7.856;2022-12-07T00:46:34;3.30;99.90
5556;DHT22;2801;50.972;7.856;2022-12-07T00:49:01;3.30;99.90
5556;DHT22;2801;50.972;7.856;2022-12-07T00:51:28;3.30;99.90
5556;DHT22;2801;50.972;7.856;2022-12-07T00:53:54;3.30;99.90
5556;DHT22;2801;50.972;7.856;2022-12-07T00:56:25;3.30;99.90
5556;DHT22;2801;50.972;7.856;2022-12-07T00:58:58;3.30;99.90
5556;DHT22;2801;50.972;7.856;2022-12-07T01:01:29;3.30;99.90
5556;DHT22;2801;50.972;7.856;2022-12-07T01:03:58;3.30;99.90
5556;DHT22;2801;50.972;7.856;2022-12-07T01:06:27;3.40;99.90
5556;DHT22;2801;50.972;7.856;2022-12-07T01:08:55;3.30;99.90
5556;DHT22;2801;50.972;7.856;2022-12-07T01:11:24;3.30;99.90
5556;DHT22;2801;50.972;7.856;2022-12-07T01:13:54;3.30;99.90
5556;DHT22;2801;50.972;7.856;2022-12-07T01:16:25;3.30;99.90
5556;DHT22;2801;50.972;7.856;2022-12-07T01:18:54;3.30;99.90
5556;DHT22;2801;50.972;7.856;2022-12-07T01:21:28;3.30;99.90
5556;DHT22;2801;50.972;7.856;2022-12-07T01:23:57;3.30;99.90
5556;DHT22;2801;50.972;7.856;2022-12-07T01:26:25;3.40;99.90
5556;DHT22;2801;50.972;7.856;2022-12-07T01:28:53;3.40;99.90
5556;DHT22;2801;50.972;7.856;2022-12-07T01:31:23;3.40;99.90
5556;DHT22;2801;50.972;7.856;2022-12-07T01:33:54;3.40;99.90
5556;DHT22;2801;50.972;7.856;2022-12-07T01:36:28;3.40;99.90
5556;DHT22;2801;50.972;7.856;2022-12-07T01:38:59;3.40;99.90
5556;DHT22;2801;50.972;7.856;2022-12-07T01:41:33;3.40;99.90
5556;DHT22;2801;50.972;7.856;2022-12-07T01:46:59;3.40;99.90
5556;DHT22;2801;50.972;7.856;2022-12-07T01:52:29;3.50;99.90
5556;DHT22;2801;50.972;7.856;2022-12-07T01:55:02;3.50;99.90
5556;DHT22;2801;50.972;7.856;2022-12-07T01:57:35;3.50;99.90
5556;DHT22;2801;50.972;7.856;2022-12-07T02:00:09;3.50;99.90
5556;DHT22;2801;50.972;7.856;2022-12-07T02:02:39;3.50;99.90
5556;DHT22;2801;50.972;7.856;2022-12-07T02:05:13;3.50;99.90
5556;DHT22;2801;50.972;7.856;2022-12-07T02:07:41;3.50;99.90
5556;DHT22;2801;50.972;7.856;2022-12-07T02:10:28;3.50;99.90
5556;DHT22;2801;50.972;7.856;2022-12-07T02:18:43;3.50;99.90
5556;DHT22;2801;50.972;7.856;2022-12-07T02:21:22;3.50;99.90
5556;DHT22;2801;50.972;7.856;2022-12-07T02:30:34;3.50;99.90
5556;DHT22;2801;50.972;7.856;2022-12-07T02:35:51;3.50;99.90
5556;DHT22;2801;50.972;7.856;2022-12-07T02:38:45;3.50;99.90
5556;DHT22;2801;50.972;7.856;2022-12-07T02:44:00;3.50;99.90
5556;DHT22;2801;50.972;7.856;2022-12-07T02:46:36;3.50;99.90
5556;DHT22;2801;50.972;7.856;2022-12-07T02:49:07;3.50;99.90
5556;DHT22;2801;50.972;7.856;2022-12-07T02:51:39;3.50;99.90
5556;DHT22;2801;50.972;7.856;2022-12-07T02:54:14;3.50;99.90
5556;DHT22;2801;50.972;7.856;2022-12-07T02:56:49;3.50;99.90
5556;DHT22;2801;50.972;7.856;2022-12-07T03:05:04;3.60;99.90
5556;DHT22;2801;50.972;7.856;2022-12-07T03:15:57;3.60;99.90
5556;DHT22;2801;50.972;7.856;2022-12-07T03:18:46;3.60;99.90
5556;DHT22;2801;50.972;7.856;2022-12-07T03:21:29;3.50;99.90
5556;DHT22;2801;50.972;7.856;2022-12-07T03:24:01;3.60;99.90
5556;DHT22;2801;50.972;7.856;2022-12-07T03:26:40;3.60;99.90
5556;DHT22;2801;50.972;7.856;2022-12-07T03:29:27;3.50;99.90
5556;DHT22;2801;50.972;7.856;2022-12-07T03:32:03;3.60;99.90
5556;DHT22;2801;50.972;7.856;2022-12-07T03:35:12;3.50;99.90
5556;DHT22;2801;50.972;7.856;2022-12-07T03:38:04;3.60;99.90
5556;DHT22;2801;50.972;7.856;2022-12-07T03:43:32;3.50;99.90
5556;DHT22;2801;50.972;7.856;2022-12-07T03:46:20;3.50;99.90
5556;DHT22;2801;50.972;7.856;2022-12-07T03:48:54;3.60;99.90
5556;DHT22;2801;50.972;7.856;2022-12-07T03:51:51;3.50;99.90
5556;DHT22;2801;50.972;7.856;2022-12-07T03:57:24;3.50;99.90
5556;DHT22;2801;50.972;7.856;2022-12-07T03:59:54;3.60;99.90
5556;DHT22;2801;50.972;7.856;2022-12-07T04:02:23;3.60;99.90
5556;DHT22;2801;50.972;7.856;2022-12-07T04:04:54;3.50;99.90
5556;DHT22;2801;50.972;7.856;2022-12-07T04:07:22;3.50;99.90
5556;DHT22;2801;50.972;7.856;2022-12-07T04:09:48;3.50;99.90
5556;DHT22;2801;50.972;7.856;2022-12-07T04:12:15;3.60;99.90
5556;DHT22;2801;50.972;7.856;2022-12-07T04:14:42;3.70;99.90
5556;DHT22;2801;50.972;7.856;2022-12-07T04:17:09;3.70;99.90
5556;DHT22;2801;50.972;7.856;2022-12-07T04:19:36;3.50;99.90
5556;DHT22;2801;50.972;7.856;2022-12-07T04:22:06;3.60;99.90
5556;DHT22;2801;50.972;7.856;2022-12-07T04:24:34;3.60;99.90
5556;DHT22;2801;50.972;7.856;2022-12-07T04:27:01;3.60;99.90
5556;DHT22;2801;50.972;7.856;2022-12-07T04:29:28;3.60;99.90
5556;DHT22;2801;50.972;7.856;2022-12-07T04:31:55;3.60;99.90
5556;DHT22;2801;50.972;7.856;2022-12-07T04:34:22;3.60;99.90
5556;DHT22;2801;50.972;7.856;2022-12-07T04:36:49;3.60;99.90
5556;DHT22;2801;50.972;7.856;2022-12-07T04:39:25;3.60;99.90
5556;DHT22;2801;50.972;7.856;2022-12-07T04:41:54;3.60;99.90
5556;DHT22;2801;50.972;7.856;2022-12-07T04:44:23;3.60;99.90
5556;DHT22;2801;50.972;7.856;2022-12-07T04:46:51;3.50;99.90
5556;DHT22;2801;50.972;7.856;2022-12-07T04:49:20;3.50;99.90
5556;DHT22;2801;50.972;7.856;2022-12-07T04:51:47;3.50;99.90
5556;DHT22;2801;50.972;7.856;2022-12-07T04:54:15;3.40;99.90
5556;DHT22;2801;50.972;7.856;2022-12-07T04:56:43;3.20;99.90
5556;DHT22;2801;50.972;7.856;2022-12-07T04:59:14;3.10;99.90
5556;DHT22;2801;50.972;7.856;2022-12-07T05:01:42;3.10;99.90
5556;DHT22;2801;50.972;7.856;2022-12-07T05:04:09;3.00;99.90
5556;DHT22;2801;50.972;7.856;2022-12-07T05:06:36;3.00;99.90
5556;DHT22;2801;50.972;7.856;2022-12-07T05:09:03;3.00;99.90
5556;DHT22;2801;50.972;7.856;2022-12-07T05:11:31;3.00;99.90
5556;DHT22;2801;50.972;7.856;2022-12-07T05:16:41;3.00;99.90
5556;DHT22;2801;50.972;7.856;2022-12-07T05:19:09;3.00;99.90
5556;DHT22;2801;50.972;7.856;2022-12-07T05:21:38;3.10;99.90
5556;DHT22;2801;50.972;7.856;2022-12-07T05:24:06;3.10;99.90
5556;DHT22;2801;50.972;7.856;2022-12-07T05:26:34;3.10;99.90
5556;DHT22;2801;50.972;7.856;2022-12-07T05:29:01;3.00;99.90
5556;DHT22;2801;50.972;7.856;2022-12-07T05:31:28;3.00;99.90
5556;DHT22;2801;50.972;7.856;2022-12-07T05:33:55;3.00;99.90
5556;DHT22;2801;50.972;7.856;2022-12-07T05:36:22;2.90;99.90
5556;DHT22;2801;50.972;7.856;2022-12-07T05:38:49;2.90;99.90
5556;DHT22;2801;50.972;7.856;2022-12-07T05:41:17;3.00;99.90
5556;DHT22;2801;50.972;7.856;2022-12-07T05:44:05;3.00;99.90
5556;DHT22;2801;50.972;7.856;2022-12-07T05:46:32;2.90;99.90
5556;DHT22;2801;50.972;7.856;2022-12-07T05:49:00;2.90;99.90
5556;DHT22;2801;50.972;7.856;2022-12-07T05:51:27;2.90;99.90
5556;DHT22;2801;50.972;7.856;2022-12-07T05:53:54;3.00;99.90
5556;DHT22;2801;50.972;7.856;2022-12-07T05:56:21;3.00;99.90
5556;DHT22;2801;50.972;7.856;2022-12-07T05:58:49;3.00;99.90
5556;DHT22;2801;50.972;7.856;2022-12-07T06:01:34;3.00;99.90
5556;DHT22;2801;50.972;7.856;2022-12-07T06:04:01;3.00;99.90
5556;DHT22;2801;50.972;7.856;2022-12-07T06:06:28;3.10;99.90
5556;DHT22;2801;50.972;7.856;2022-12-07T06:08:55;3.10;99.90
5556;DHT22;2801;50.972;7.856;2022-12-07T06:11:21;3.10;99.90
5556;DHT22;2801;50.972;7.856;2022-12-07T06:14:07;3.10;99.90
5556;DHT22;2801;50.972;7.856;2022-12-07T06:16:38;3.20;99.90
5556;DHT22;2801;50.972;7.856;2022-12-07T06:19:05;3.20;99.90
5556;DHT22;2801;50.972;7.856;2022-12-07T06:21:31;3.20;99.90
5556;DHT22;2801;50.972;7.856;2022-12-07T06:23:58;3.10;99.90
5556;DHT22;2801;50.972;7.856;2022-12-07T06:26:25;3.10;99.90
5556;DHT22;2801;50.972;7.856;2022-12-07T06:28:52;3.10;99.90
5556;DHT22;2801;50.972;7.856;2022-12-07T06:31:19;3.10;99.90
5556;DHT22;2801;50.972;7.856;2022-12-07T06:33:46;3.10;99.90
5556;DHT22;2801;50.972;7.856;2022-12-07T06:36:13;3.10;99.90
5556;DHT22;2801;50.972;7.856;2022-12-07T06:38:40;3.10;99.90
5556;DHT22;2801;50.972;7.856;2022-12-07T06:41:07;3.10;99.90
5556;DHT22;2801;50.972;7.856;2022-12-07T06:43:34;3.10;99.90
5556;DHT22;2801;50.972;7.856;2022-12-07T06:46:00;3.10;99.90
5556;DHT22;2801;50.972;7.856;2022-12-07T06:48:27;3.20;99.90
5556;DHT22;2801;50.972;7.856;2022-12-07T06:50:54;3.20;99.90
5556;DHT22;2801;50.972;7.856;2022-12-07T06:53:22;3.10;99.90
5556;DHT22;2801;50.972;7.856;2022-12-07T06:55:49;3.20;99.90
5556;DHT22;2801;50.972;7.856;2022-12-07T06:58:16;3.20;99.90
5556;DHT22;2801;50.972;7.856;2022-12-07T07:00:44;3.10;99.90
5556;DHT22;2801;50.972;7.856;2022-12-07T07:03:11;3.10;99.90
5556;DHT22;2801;50.972;7.856;2022-12-07T07:05:38;3.10;99.90
5556;DHT22;2801;50.972;7.856;2022-12-07T07:08:05;3.10;99.90
5556;DHT22;2801;50.972;7.856;2022-12-07T07:10:49;3.10;99.90
5556;DHT22;2801;50.972;7.856;2022-12-07T07:13:16;3.10;99.90
5556;DHT22;2801;50.972;7.856;2022-12-07T07:15:43;3.10;99.90
5556;DHT22;2801;50.972;7.856;2022-12-07T07:18:10;3.10;99.90
5556;DHT22;2801;50.972;7.856;2022-12-07T07:20:38;3.10;99.90
5556;DHT22;2801;50.972;7.856;2022-12-07T07:23:05;3.10;99.90
5556;DHT22;2801;50.972;7.856;2022-12-07T07:25:34;3.10;99.90
5556;DHT22;2801;50.972;7.856;2022-12-07T07:28:01;3.10;99.90
5556;DHT22;2801;50.972;7.856;2022-12-07T07:30:28;3.10;99.90
5556;DHT22;2801;50.972;7.856;2022-12-07T07:33:02;3.10;99.90
5556;DHT22;2801;50.972;7.856;2022-12-07T07:35:31;3.10;99.90
5556;DHT22;2801;50.972;7.856;2022-12-07T07:38:00;3.10;99.90
5556;DHT22;2801;50.972;7.856;2022-12-07T07:40:27;3.20;99.90
5556;DHT22;2801;50.972;7.856;2022-12-07T07:42:58;3.20;99.90
5556;DHT22;2801;50.972;7.856;2022-12-07T07:45:26;3.20;99.90
5556;DHT22;2801;50.972;7.856;2022-12-07T07:47:53;3.20;99.90
5556;DHT22;2801;50.972;7.856;2022-12-07T07:50:21;3.20;99.90
5556;DHT22;2801;50.972;7.856;2022-12-07T07:52:48;3.20;99.90
5556;DHT22;2801;50.972;7.856;2022-12-07T07:55:16;3.20;99.90
5556;DHT22;2801;50.972;7.856;2022-12-07T07:57:43;3.20;99.90
5556;DHT22;2801;50.972;7.856;2022-12-07T08:00:16;3.20;99.90
5556;DHT22;2801;50.972;7.856;2022-12-07T08:02:43;3.30;99.90
5556;DHT22;2801;50.972;7.856;2022-12-07T08:05:11;3.30;99.90
5556;DHT22;2801;50.972;7.856;2022-12-07T08:07:40;3.40;99.90
5556;DHT22;2801;50.972;7.856;2022-12-07T08:10:10;3.40;99.90
5556;DHT22;2801;50.972;7.856;2022-12-07T08:12:40;3.40;99.90
5556;DHT22;2801;50.972;7.856;2022-12-07T08:15:28;3.40;99.90
5556;DHT22;2801;50.972;7.856;2022-12-07T08:17:57;3.30;99.90
5556;DHT22;2801;50.972;7.856;2022-12-07T08:20:24;3.20;99.90
5556;DHT22;2801;50.972;7.856;2022-12-07T08:22:52;3.20;99.90
5556;DHT22;2801;50.972;7.856;2022-12-07T08:25:18;3.20;99.90
5556;DHT22;2801;50.972;7.856;2022-12-07T08:27:45;3.10;99.90
5556;DHT22;2801;50.972;7.856;2022-12-07T08:30:13;3.10;99.90
5556;DHT22;2801;50.972;7.856;2022-12-07T08:32:40;3.10;99.90
5556;DHT22;2801;50.972;7.856;2022-12-07T08:35:07;3.10;99.90
5556;DHT22;2801;50.972;7.856;2022-12-07T08:37:34;3.10;99.90
5556;DHT22;2801;50.972;7.856;2022-12-07T08:40:03;3.10;99.90
5556;DHT22;2801;50.972;7.856;2022-12-07T08:42:30;3.20;99.90
5556;DHT22;2801;50.972;7.856;2022-12-07T08:45:09;3.20;99.90
5556;DHT22;2801;50.972;7.856;2022-12-07T08:47:42;3.30;99.90
5556;DHT22;2801;50.972;7.856;2022-12-07T08:50:13;3.30;99.90
5556;DHT22;2801;50.972;7.856;2022-12-07T08:52:41;3.40;99.90
5556;DHT22;2801;50.972;7.856;2022-12-07T08:55:10;3.40;99.90
5556;DHT22;2801;50.972;7.856;2022-12-07T08:57:38;3.30;99.90
5556;DHT22;2801;50.972;7.856;2022-12-07T09:00:06;3.40;99.90
5556;DHT22;2801;50.972;7.856;2022-12-07T09:02:34;3.50;99.90
5556;DHT22;2801;50.972;7.856;2022-12-07T09:05:01;3.40;99.90
5556;DHT22;2801;50.972;7.856;2022-12-07T09:07:30;3.50;99.90
5556;DHT22;2801;50.972;7.856;2022-12-07T09:10:00;3.40;99.90
5556;DHT22;2801;50.972;7.856;2022-12-07T09:12:28;3.50;99.90
5556;DHT22;2801;50.972;7.856;2022-12-07T09:14:55;3.50;99.90
5556;DHT22;2801;50.972;7.856;2022-12-07T09:17:22;3.40;99.90
5556;DHT22;2801;50.972;7.856;2022-12-07T09:19:49;3.50;99.90
5556;DHT22;2801;50.972;7.856;2022-12-07T09:22:16;3.50;99.90
5556;DHT22;2801;50.972;7.856;2022-12-07T09:24:43;3.50;99.90
5556;DHT22;2801;50.972;7.856;2022-12-07T09:27:12;3.50;99.90
5556;DHT22;2801;50.972;7.856;2022-12-07T09:29:39;3.50;99.90
5556;DHT22;2801;50.972;7.856;2022-12-07T09:32:05;3.60;99.90
5556;DHT22;2801;50.972;7.856;2022-12-07T09:34:37;3.70;99.90
5556;DHT22;2801;50.972;7.856;2022-12-07T09:37:04;3.80;99.90
5556;DHT22;2801;50.972;7.856;2022-12-07T09:39:31;3.90;99.90
5556;DHT22;2801;50.972;7.856;2022-12-07T09:41:59;4.00;99.90
5556;DHT22;2801;50.972;7.856;2022-12-07T09:44:30;4.00;99.90
5556;DHT22;2801;50.972;7.856;2022-12-07T09:46:58;4.00;99.90
5556;DHT22;2801;50.972;7.856;2022-12-07T09:49:29;4.00;99.90
5556;DHT22;2801;50.972;7.856;2022-12-07T09:52:49;4.10;99.90
5556;DHT22;2801;50.972;7.856;2022-12-07T09:55:01;4.00;99.90
5556;DHT22;2801;50.972;7.856;2022-12-07T09:57:31;4.10;99.90
5556;DHT22;2801;50.972;7.856;2022-12-07T10:00:07;4.10;99.90
5556;DHT22;2801;50.972;7.856;2022-12-07T10:02:46;4.20;99.90
5556;DHT22;2801;50.972;7.856;2022-12-07T10:05:40;4.00;99.90
5556;DHT22;2801;50.972;7.856;2022-12-07T10:08:12;4.00;99.90
5556;DHT22;2801;50.972;7.856;2022-12-07T10:10:40;3.90;99.90
5556;DHT22;2801;50.972;7.856;2022-12-07T10:13:20;3.80;99.90
5556;DHT22;2801;50.972;7.856;2022-12-07T10:24:03;3.60;99.90
5556;DHT22;2801;50.972;7.856;2022-12-07T10:26:37;3.60;99.90
5556;DHT22;2801;50.972;7.856;2022-12-07T10:29:18;3.70;99.90
5556;DHT22;2801;50.972;7.856;2022-12-07T10:34:41;3.70;99.90
5556;DHT22;2801;50.972;7.856;2022-12-07T10:37:19;3.80;99.90
5556;DHT22;2801;50.972;7.856;2022-12-07T10:45:09;4.00;99.90
5556;DHT22;2801;50.972;7.856;2022-12-07T10:59:51;4.10;99.90
5556;DHT22;2801;50.972;7.856;2022-12-07T11:03:00;4.10;99.90
5556;DHT22;2801;50.972;7.856;2022-12-07T11:05:43;4.10;99.90
5556;DHT22;2801;50.972;7.856;2022-12-07T11:14:44;4.30;99.90
5556;DHT22;2801;50.972;7.856;2022-12-07T11:17:34;4.30;99.90
5556;DHT22;2801;50.972;7.856;2022-12-07T11:20:39;4.30;99.90
5556;DHT22;2801;50.972;7.856;2022-12-07T11:26:34;4.20;99.90
5556;DHT22;2801;50.972;7.856;2022-12-07T11:37:25;4.40;99.90
5556;DHT22;2801;50.972;7.856;2022-12-07T11:45:02;4.60;99.90
5556;DHT22;2801;50.972;7.856;2022-12-07T11:53:03;5.00;99.90
5556;DHT22;2801;50.972;7.856;2022-12-07T11:56:03;4.90;99.90
5556;DHT22;2801;50.972;7.856;2022-12-07T11:58:49;4.90;99.90
5556;DHT22;2801;50.972;7.856;2022-12-07T12:06:43;4.90;99.90
5556;DHT22;2801;50.972;7.856;2022-12-07T12:10:05;4.90;99.90
5556;DHT22;2801;50.972;7.856;2022-12-07T12:13:02;4.80;99.90
5556;DHT22;2801;50.972;7.856;2022-12-07T12:16:09;4.50;99.90
5556;DHT22;2801;50.972;7.856;2022-12-07T12:21:33;3.90;99.90
5556;DHT22;2801;50.972;7.856;2022-12-07T12:24:18;3.80;99.90
5556;DHT22;2801;50.972;7.856;2022-12-07T12:26:59;3.90;99.90
5556;DHT22;2801;50.972;7.856;2022-12-07T12:29:39;4.00;99.90
5556;DHT22;2801;50.972;7.856;2022-12-07T12:32:17;4.00;99.90
5556;DHT22;2801;50.972;7.856;2022-12-07T12:42:45;4.10;99.90
5556;DHT22;2801;50.972;7.856;2022-12-07T12:45:26;4.20;99.90
5556;DHT22;2801;50.972;7.856;2022-12-07T12:48:04;4.30;99.90
5556;DHT22;2801;50.972;7.856;2022-12-07T12:51:36;4.40;99.90
5556;DHT22;2801;50.972;7.856;2022-12-07T12:59:39;4.20;99.90
5556;DHT22;2801;50.972;7.856;2022-12-07T13:31:45;4.20;99.90
5556;DHT22;2801;50.972;7.856;2022-12-07T13:34:29;4.10;99.90
5556;DHT22;2801;50.972;7.856;2022-12-07T13:37:24;4.00;99.90
5556;DHT22;2801;50.972;7.856;2022-12-07T13:40:12;3.90;99.90
5556;DHT22;2801;50.972;7.856;2022-12-07T13:42:45;3.80;99.90
5556;DHT22;2801;50.972;7.856;2022-12-07T13:45:30;3.70;99.90
5556;DHT22;2801;50.972;7.856;2022-12-07T13:48:33;3.70;99.90
5556;DHT22;2801;50.972;7.856;2022-12-07T13:51:20;3.70;99.90
5556;DHT22;2801;50.972;7.856;2022-12-07T13:53:55;3.70;99.90
5556;DHT22;2801;50.972;7.856;2022-12-07T13:56:33;3.60;99.90
5556;DHT22;2801;50.972;7.856;2022-12-07T13:59:01;3.60;99.90
5556;DHT22;2801;50.972;7.856;2022-12-07T14:01:31;3.60;99.90
5556;DHT22;2801;50.972;7.856;2022-12-07T14:04:30;3.50;99.90
5556;DHT22;2801;50.972;7.856;2022-12-07T14:06:59;3.40;99.90
5556;DHT22;2801;50.972;7.856;2022-12-07T14:09:29;3.50;99.90
5556;DHT22;2801;50.972;7.856;2022-12-07T14:11:57;3.50;99.90
5556;DHT22;2801;50.972;7.856;2022-12-07T14:14:30;3.50;99.90
5556;DHT22;2801;50.972;7.856;2022-12-07T14:17:23;3.50;99.90
5556;DHT22;2801;50.972;7.856;2022-12-07T14:19:56;3.50;99.90
5556;DHT22;2801;50.972;7.856;2022-12-07T14:22:37;3.50;99.90
5556;DHT22;2801;50.972;7.856;2022-12-07T14:25:22;3.40;99.90
5556;DHT22;2801;50.972;7.856;2022-12-07T14:33:02;3.50;99.90
5556;DHT22;2801;50.972;7.856;2022-12-07T14:35:31;3.50;99.90
5556;DHT22;2801;50.972;7.856;2022-12-07T14:37:59;3.50;99.90
5556;DHT22;2801;50.972;7.856;2022-12-07T14:40:27;3.50;99.90
5556;DHT22;2801;50.972;7.856;2022-12-07T14:43:16;3.50;99.90
5556;DHT22;2801;50.972;7.856;2022-12-07T14:45:44;3.50;99.90
5556;DHT22;2801;50.972;7.856;2022-12-07T14:48:13;3.50;99.90
5556;DHT22;2801;50.972;7.856;2022-12-07T14:51:01;3.50;99.90
5556;DHT22;2801;50.972;7.856;2022-12-07T14:53:50;3.50;99.90
5556;DHT22;2801;50.972;7.856;2022-12-07T14:56:25;3.50;99.90
5556;DHT22;2801;50.972;7.856;2022-12-07T14:58:54;3.50;99.90
5556;DHT22;2801;50.972;7.856;2022-12-07T15:01:20;3.50;99.90
5556;DHT22;2801;50.972;7.856;2022-12-07T15:03:47;3.50;99.90
5556;DHT22;2801;50.972;7.856;2022-12-07T15:06:16;3.50;99.90
5556;DHT22;2801;50.972;7.856;2022-12-07T15:08:45;3.50;99.90
5556;DHT22;2801;50.972;7.856;2022-12-07T15:11:14;3.60;99.90
5556;DHT22;2801;50.972;7.856;2022-12-07T15:13:41;3.50;99.90
5556;DHT22;2801;50.972;7.856;2022-12-07T15:16:27;3.50;99.90
5556;DHT22;2801;50.972;7.856;2022-12-07T15:19:16;3.50;99.90
5556;DHT22;2801;50.972;7.856;2022-12-07T15:21:55;3.60;99.90
5556;DHT22;2801;50.972;7.856;2022-12-07T15:24:23;3.50;99.90
5556;DHT22;2801;50.972;7.856;2022-12-07T15:26:50;3.40;99.90
5556;DHT22;2801;50.972;7.856;2022-12-07T15:29:18;3.40;99.90
5556;DHT22;2801;50.972;7.856;2022-12-07T15:31:50;3.30;99.90
5556;DHT22;2801;50.972;7.856;2022-12-07T15:34:27;3.30;99.90
5556;DHT22;2801;50.972;7.856;2022-12-07T15:37:03;3.30;99.90
5556;DHT22;2801;50.972;7.856;2022-12-07T15:39:30;3.30;99.90
5556;DHT22;2801;50.972;7.856;2022-12-07T15:41:57;3.30;99.90
5556;DHT22;2801;50.972;7.856;2022-12-07T15:44:24;3.30;99.90
5556;DHT22;2801;50.972;7.856;2022-12-07T15:47:10;3.30;99.90
5556;DHT22;2801;50.972;7.856;2022-12-07T15:49:36;3.30;99.90
5556;DHT22;2801;50.972;7.856;2022-12-07T15:52:03;3.20;99.90
5556;DHT22;2801;50.972;7.856;2022-12-07T15:54:31;3.10;99.90
5556;DHT22;2801;50.972;7.856;2022-12-07T15:56:59;3.10;99.90
5556;DHT22;2801;50.972;7.856;2022-12-07T15:59:26;3.00;99.90
5556;DHT22;2801;50.972;7.856;2022-12-07T16:01:55;2.90;99.90
5556;DHT22;2801;50.972;7.856;2022-12-07T16:04:22;2.80;99.90
5556;DHT22;2801;50.972;7.856;2022-12-07T16:06:49;2.80;99.90
5556;DHT22;2801;50.972;7.856;2022-12-07T16:09:18;2.70;99.90
5556;DHT22;2801;50.972;7.856;2022-12-07T16:11:45;2.70;99.90
5556;DHT22;2801;50.972;7.856;2022-12-07T16:14:12;2.60;99.90
5556;DHT22;2801;50.972;7.856;2022-12-07T16:16:39;2.50;99.90
5556;DHT22;2801;50.972;7.856;2022-12-07T16:19:07;2.50;99.90
5556;DHT22;2801;50.972;7.856;2022-12-07T16:21:35;2.40;99.90
5556;DHT22;2801;50.972;7.856;2022-12-07T16:24:02;2.30;99.90
5556;DHT22;2801;50.972;7.856;2022-12-07T16:26:30;2.30;99.90
5556;DHT22;2801;50.972;7.856;2022-12-07T16:28:57;2.20;99.90
5556;DHT22;2801;50.972;7.856;2022-12-07T16:31:26;2.20;99.90
5556;DHT22;2801;50.972;7.856;2022-12-07T16:33:55;2.20;99.90
5556;DHT22;2801;50.972;7.856;2022-12-07T16:36:24;2.10;99.90
5556;DHT22;2801;50.972;7.856;2022-12-07T16:39:13;2.20;99.90
5556;DHT22;2801;50.972;7.856;2022-12-07T16:41:41;2.20;99.90
5556;DHT22;2801;50.972;7.856;2022-12-07T16:44:10;2.30;99.90
5556;DHT22;2801;50.972;7.856;2022-12-07T16:46:39;2.30;99.90
5556;DHT22;2801;50.972;7.856;2022-12-07T16:49:13;2.40;99.90
5556;DHT22;2801;50.972;7.856;2022-12-07T16:51:40;2.50;99.90
5556;DHT22;2801;50.972;7.856;2022-12-07T16:54:11;2.60;99.90
5556;DHT22;2801;50.972;7.856;2022-12-07T16:56:39;2.60;99.90
5556;DHT22;2801;50.972;7.856;2022-12-07T16:59:06;2.60;99.90
5556;DHT22;2801;50.972;7.856;2022-12-07T17:01:33;2.60;99.90
5556;DHT22;2801;50.972;7.856;2022-12-07T17:04:01;2.60;99.90
5556;DHT22;2801;50.972;7.856;2022-12-07T17:06:29;2.60;99.90
5556;DHT22;2801;50.972;7.856;2022-12-07T17:08:57;2.60;99.90
5556;DHT22;2801;50.972;7.856;2022-12-07T17:11:27;2.70;99.90
5556;DHT22;2801;50.972;7.856;2022-12-07T17:13:59;2.70;99.90
5556;DHT22;2801;50.972;7.856;2022-12-07T17:16:45;2.70;99.90
5556;DHT22;2801;50.972;7.856;2022-12-07T17:19:14;2.80;99.90
5556;DHT22;2801;50.972;7.856;2022-12-07T17:21:43;2.80;99.90
5556;DHT22;2801;50.972;7.856;2022-12-07T17:24:12;2.80;99.90
5556;DHT22;2801;50.972;7.856;2022-12-07T17:26:43;2.80;99.90
5556;DHT22;2801;50.972;7.856;2022-12-07T17:29:12;2.80;99.90
5556;DHT22;2801;50.972;7.856;2022-12-07T17:31:40;2.80;99.90
5556;DHT22;2801;50.972;7.856;2022-12-07T17:34:15;2.80;99.90
5556;DHT22;2801;50.972;7.856;2022-12-07T17:36:42;2.80;99.90
5556;DHT22;2801;50.972;7.856;2022-12-07T17:39:14;2.80;99.90
5556;DHT22;2801;50.972;7.856;2022-12-07T17:41:42;2.80;99.90
5556;DHT22;2801;50.972;7.856;2022-12-07T17:44:29;2.90;99.90
5556;DHT22;2801;50.972;7.856;2022-12-07T17:46:56;2.90;99.90
5556;DHT22;2801;50.972;7.856;2022-12-07T17:49:26;2.90;99.90
5556;DHT22;2801;50.972;7.856;2022-12-07T17:51:53;3.00;99.90
5556;DHT22;2801;50.972;7.856;2022-12-07T17:54:40;3.00;99.90
5556;DHT22;2801;50.972;7.856;2022-12-07T17:57:07;3.00;99.90
5556;DHT22;2801;50.972;7.856;2022-12-07T17:59:34;3.00;99.90
5556;DHT22;2801;50.972;7.856;2022-12-07T18:02:02;3.00;99.90
5556;DHT22;2801;50.972;7.856;2022-12-07T18:04:29;3.10;99.90
5556;DHT22;2801;50.972;7.856;2022-12-07T18:06:56;3.10;99.90
5556;DHT22;2801;50.972;7.856;2022-12-07T18:09:23;3.10;99.90
5556;DHT22;2801;50.972;7.856;2022-12-07T18:11:49;3.10;99.90
5556;DHT22;2801;50.972;7.856;2022-12-07T18:14:17;3.10;99.90
5556;DHT22;2801;50.972;7.856;2022-12-07T18:16:43;3.10;99.90
5556;DHT22;2801;50.972;7.856;2022-12-07T18:19:12;3.30;99.90
5556;DHT22;2801;50.972;7.856;2022-12-07T18:21:40;3.20;99.90
5556;DHT22;2801;50.972;7.856;2022-12-07T18:24:09;3.10;99.90
5556;DHT22;2801;50.972;7.856;2022-12-07T18:26:38;3.10;99.90
5556;DHT22;2801;50.972;7.856;2022-12-07T18:29:07;3.10;99.90
5556;DHT22;2801;50.972;7.856;2022-12-07T18:31:36;3.10;99.90
5556;DHT22;2801;50.972;7.856;2022-12-07T18:34:04;3.10;99.90
5556;DHT22;2801;50.972;7.856;2022-12-07T18:36:41;3.10;99.90
5556;DHT22;2801;50.972;7.856;2022-12-07T18:39:14;3.10;99.90
5556;DHT22;2801;50.972;7.856;2022-12-07T18:41:42;3.10;99.90
5556;DHT22;2801;50.972;7.856;2022-12-07T18:44:09;3.20;99.90
5556;DHT22;2801;50.972;7.856;2022-12-07T18:46:36;3.10;99.90
5556;DHT22;2801;50.972;7.856;2022-12-07T18:49:03;3.10;99.90
5556;DHT22;2801;50.972;7.856;2022-12-07T18:51:30;3.10;99.90
5556;DHT22;2801;50.972;7.856;2022-12-07T18:53:59;3.10;99.90
5556;DHT22;2801;50.972;7.856;2022-12-07T18:56:27;3.10;99.90
5556;DHT22;2801;50.972;7.856;2022-12-07T18:58:56;3.20;99.90
5556;DHT22;2801;50.972;7.856;2022-12-07T19:01:48;3.10;99.90
5556;DHT22;2801;50.972;7.856;2022-12-07T19:04:17;3.10;99.90
5556;DHT22;2801;50.972;7.856;2022-12-07T19:06:46;3.10;99.90
5556;DHT22;2801;50.972;7.856;2022-12-07T19:09:15;3.10;99.90
5556;DHT22;2801;50.972;7.856;2022-12-07T19:11:43;3.00;99.90
5556;DHT22;2801;50.972;7.856;2022-12-07T19:17:02;3.00;99.90
5556;DHT22;2801;50.972;7.856;2022-12-07T19:19:34;3.00;99.90
5556;DHT22;2801;50.972;7.856;2022-12-07T19:22:04;3.00;99.90
5556;DHT22;2801;50.972;7.856;2022-12-07T19:24:33;3.00;99.90
5556;DHT22;2801;50.972;7.856;2022-12-07T19:27:00;3.10;99.90
5556;DHT22;2801;50.972;7.856;2022-12-07T19:29:28;3.00;99.90
5556;DHT22;2801;50.972;7.856;2022-12-07T19:31:58;3.10;99.90